Sebec Lake, Maine
Current Conditions -  °F | °C
As of 11:53 PM on Friday 31 Oct 2014 (Local Time) from KMLT Reporting Station
Overcast Overcast  
Wind Chill: 39°   Ceiling: 5500
Heat Index: 42°   Visibility: 10mi
Dew Point: 33°   Wind: 5mph
Humidity: 70%   Direction: 40°NE
Pressure: 30.1"   Gusts: NA
Location:  45.2997°N, 69.3389°W
Report Text: KMLT 010353Z AUTO 04004KT 10SM OVC055 06/01 A3010 RMK AO2 SLP199 T00560006
Loading
Personal Weather Stations






























Interactive Weather Map
Tropical Storm Tracking
New forecast layout! Learn more

10-Day Weather Forecast

Advertisements
Track Severe Weather on mobile